Time;durP1;ratioP1;P1;durP2;ratioP2;P2;SDS_P1;SDS_P2;PMS_P1;PMS_P2;Temp;Humidity;BMP_temperature;BMP_pressure;BME280_temperature;BME280_humidity;BME280_pressure;Samples;Min_cycle;Max_cycle;Signal;HPM_P1;HPM_P2
2023/05/23 00:04:17;;;;;;;9.88;4.68;;;;;;;14.95;100.00;96181.75;10493656;28;20261;-66
2023/05/23 00:09:18;;;;;;;6.88;4.78;;;;;;;15.04;100.00;96180.59;10493549;28;20219;-66
2023/05/23 00:14:18;;;;;;;7.68;4.93;;;;;;;15.09;100.00;96186.06;10493794;28;20191;-66
2023/05/23 00:19:18;;;;;;;7.28;5.47;;;;;;;15.24;100.00;96196.47;10493557;28;20258;-66
2023/05/23 00:24:19;;;;;;;6.47;5.30;;;;;;;15.76;98.09;96177.47;10493665;28;20205;-66
2023/05/23 00:29:19;;;;;;;8.60;5.10;;;;;;;15.86;95.60;96164.69;10494585;28;20229;-66
2023/05/23 00:34:20;;;;;;;9.27;4.50;;;;;;;15.86;93.86;96152.31;10501841;28;20178;-66
2023/05/23 00:39:20;;;;;;;5.75;5.00;;;;;;;15.99;94.03;96150.69;10501240;28;20214;-66
2023/05/23 00:44:21;;;;;;;6.38;4.65;;;;;;;15.86;94.35;96159.41;10483348;28;20217;-65
2023/05/23 00:49:21;;;;;;;6.30;3.22;;;;;;;16.29;91.57;96142.31;10500943;28;20214;-66
2023/05/23 00:54:28;;;;;;;5.70;3.50;;;;;;;16.30;91.71;96160.59;10483192;28;20198;-65
2023/05/23 00:59:29;;;;;;;4.93;3.97;;;;;;;16.10;96.75;96191.53;10482726;28;20183;-67
2023/05/23 01:04:33;;;;;;;6.32;4.25;;;;;;;15.10;100.00;96208.81;10482260;28;20830;-66
2023/05/23 01:09:33;;;;;;;9.85;4.32;;;;;;;14.58;100.00;96195.16;10482859;28;20216;-66
2023/05/23 01:14:58;;;;;;;5.68;4.63;;;;;;;14.30;100.00;96218.06;10500263;28;20183;-64
2023/05/23 01:20:08;;;;;;;8.85;4.18;;;;;;;14.26;100.00;96215.03;10482104;28;20211;-65
2023/05/23 01:25:35;;;;;;;7.57;4.13;;;;;;;14.11;100.00;96209.03;10499675;28;20188;-64
2023/05/23 01:30:38;;;;;;;5.80;3.60;;;;;;;14.11;100.00;96219.56;10481599;28;20313;-64
2023/05/23 01:35:39;;;;;;;4.72;3.72;;;;;;;13.98;100.00;96207.94;10499291;28;20215;-66
2023/05/23 01:40:39;;;;;;;4.68;4.07;;;;;;;13.86;100.00;96204.97;10498410;28;20257;-64
2023/05/23 01:45:40;;;;;;;5.15;4.43;;;;;;;13.70;100.00;96203.41;10498818;28;20187;-66
2023/05/23 01:50:44;;;;;;;6.90;4.45;;;;;;;13.60;100.00;96195.03;10480715;28;20258;-64
2023/05/23 01:55:45;;;;;;;6.95;5.28;;;;;;;13.48;100.00;96210.50;10481230;28;20187;-64
2023/05/23 02:00:45;;;;;;;8.52;5.40;;;;;;;13.38;100.00;96231.88;10480665;28;20219;-64
2023/05/23 02:05:46;;;;;;;7.95;4.60;;;;;;;13.42;100.00;96234.13;10480384;28;20187;-63
2023/05/23 02:10:46;;;;;;;6.72;5.32;;;;;;;13.32;100.00;96229.13;10497871;28;20717;-65
2023/05/23 02:15:47;;;;;;;10.20;6.50;;;;;;;13.15;100.00;96218.81;10497866;28;20722;-64
2023/05/23 02:20:47;;;;;;;9.35;6.40;;;;;;;13.01;100.00;96214.41;10479695;28;20674;-66
2023/05/23 02:25:47;;;;;;;9.48;6.90;;;;;;;13.09;100.00;96206.41;10497223;28;20211;-64
2023/05/23 02:30:48;;;;;;;9.25;5.82;;;;;;;13.05;100.00;96220.94;10479211;28;20234;-64
2023/05/23 02:35:50;;;;;;;11.55;7.00;;;;;;;13.08;100.00;96235.50;10497017;28;20187;-65
2023/05/23 02:40:52;;;;;;;11.02;7.43;;;;;;;13.08;100.00;96206.56;10496681;28;20282;-64
2023/05/23 02:45:52;;;;;;;7.72;6.00;;;;;;;12.98;100.00;96201.63;10478609;28;20179;-65
2023/05/23 02:50:53;;;;;;;8.80;6.10;;;;;;;12.96;100.00;96201.81;10478160;28;20224;-64
2023/05/23 02:55:53;;;;;;;12.32;7.90;;;;;;;12.76;100.00;96191.06;10477268;28;20197;-65
2023/05/23 03:00:53;;;;;;;9.20;7.88;;;;;;;12.75;100.00;96183.34;10477731;28;20310;-65
2023/05/23 03:05:54;;;;;;;11.90;8.50;;;;;;;12.72;100.00;96188.97;10527119;28;20205;-65
2023/05/23 03:10:54;;;;;;;15.05;8.77;;;;;;;12.73;100.00;96209.81;10537269;28;20222;-65
2023/05/23 03:15:54;;;;;;;10.63;7.65;;;;;;;12.74;100.00;96203.56;10536989;28;20269;-65
2023/05/23 03:20:55;;;;;;;12.45;7.55;;;;;;;12.77;100.00;96205.84;10556501;28;20214;-65
2023/05/23 03:25:58;;;;;;;10.93;7.85;;;;;;;12.72;100.00;96197.66;10560107;28;20194;-64
2023/05/23 03:30:58;;;;;;;12.20;7.68;;;;;;;12.69;100.00;96192.78;10559910;28;20239;-65
2023/05/23 03:35:59;;;;;;;10.23;7.03;;;;;;;12.70;100.00;96199.66;10559664;28;20631;-65
2023/05/23 03:40:59;;;;;;;9.88;7.18;;;;;;;12.68;100.00;96204.31;10559958;28;20342;-65
2023/05/23 03:46:00;;;;;;;9.18;7.72;;;;;;;12.71;100.00;96217.06;10559681;28;20679;-66
2023/05/23 03:51:01;;;;;;;10.00;7.72;;;;;;;12.70;100.00;96228.56;10559311;28;20201;-65
2023/05/23 03:56:02;;;;;;;12.15;8.75;;;;;;;12.72;100.00;96234.47;10577507;28;20197;-63
2023/05/23 04:01:03;;;;;;;11.10;7.38;;;;;;;12.69;100.00;96242.69;10559144;28;20237;-63
2023/05/23 04:06:04;;;;;;;14.05;7.68;;;;;;;12.75;100.00;96251.69;10559221;28;20193;-64
2023/05/23 04:11:05;;;;;;;14.00;7.30;;;;;;;12.73;100.00;96258.94;10559664;28;20217;-64
2023/05/23 04:16:09;;;;;;;8.40;7.18;;;;;;;12.99;100.00;96240.88;10559180;28;20663;-65
2023/05/23 04:21:10;;;;;;;12.38;7.00;;;;;;;12.79;100.00;96238.00;10577659;28;20247;-64
2023/05/23 04:26:17;;;;;;;13.30;6.22;;;;;;;13.01;100.00;96236.25;10559209;28;20186;-64
2023/05/23 04:31:25;;;;;;;6.28;5.68;;;;;;;13.10;100.00;96229.06;10559168;28;20625;-64
2023/05/23 04:36:26;;;;;;;12.05;6.10;;;;;;;13.10;100.00;96230.91;10558960;28;20234;-63
2023/05/23 04:41:28;;;;;;;6.88;5.72;;;;;;;13.16;100.00;96233.59;10558854;28;20293;-63
2023/05/23 04:46:49;;;;;;;6.57;5.75;;;;;;;13.19;100.00;96233.22;10576973;28;20253;-64
2023/05/23 04:51:56;;;;;;;7.88;6.38;;;;;;;13.24;100.00;96239.75;10558720;28;20553;-64
2023/05/23 04:57:05;;;;;;;6.15;5.57;;;;;;;13.40;100.00;96236.94;10558758;28;20664;-64
2023/05/23 05:02:05;;;;;;;8.75;6.93;;;;;;;13.49;100.00;96238.47;10558217;28;20330;-64
2023/05/23 05:07:06;;;;;;;10.77;8.45;;;;;;;13.82;100.00;96218.72;10558583;28;20233;-65
2023/05/23 05:12:07;;;;;;;10.38;8.38;;;;;;;14.26;100.00;96192.13;10558073;28;20206;-64
2023/05/23 05:17:08;;;;;;;10.98;9.07;;;;;;;14.30;100.00;96181.19;10561318;28;20181;-64
2023/05/23 05:22:17;;;;;;;15.55;11.50;;;;;;;14.46;100.00;96162.44;10565637;28;20248;-64
2023/05/23 05:27:18;;;;;;;12.35;11.15;;;;;;;14.50;100.00;96178.66;10565526;28;20305;-63
2023/05/23 05:32:18;;;;;;;15.88;14.20;;;;;;;14.31;100.00;96185.47;10583788;28;20773;-64
2023/05/23 05:37:18;;;;;;;17.17;15.05;;;;;;;14.53;100.00;96197.56;10565240;28;20263;-64
2023/05/23 05:42:22;;;;;;;19.27;14.27;;;;;;;14.60;100.00;96194.97;10565267;28;20210;-64
2023/05/23 05:47:23;;;;;;;21.55;18.58;;;;;;;14.48;100.00;96201.78;10564589;28;20210;-63
2023/05/23 05:52:23;;;;;;;22.73;18.95;;;;;;;14.63;100.00;96208.59;10550964;28;20581;-63
2023/05/23 05:57:24;;;;;;;25.98;19.17;;;;;;;14.62;100.00;96208.78;10561511;28;20739;-62
2023/05/23 06:02:25;;;;;;;24.65;19.05;;;;;;;14.73;100.00;96202.13;10560064;22;20249;-69
2023/05/23 06:07:25;;;;;;;25.98;21.67;;;;;;;14.54;100.00;96199.19;10545572;28;20206;-68
2023/05/23 06:12:26;;;;;;;28.08;20.15;;;;;;;14.81;100.00;96194.09;10581884;28;20695;-69
2023/05/23 06:17:27;;;;;;;22.05;18.95;;;;;;;15.00;100.00;96197.81;10582134;28;20261;-69
2023/05/23 06:22:27;;;;;;;25.65;19.90;;;;;;;15.02;100.00;96208.97;10563288;28;20220;-69
2023/05/23 06:27:28;;;;;;;22.30;18.08;;;;;;;15.14;100.00;96209.22;10562806;28;20309;-68
2023/05/23 06:32:28;;;;;;;22.70;20.38;;;;;;;14.54;100.00;96211.53;10562910;28;20212;-68
2023/05/23 06:37:28;;;;;;;23.63;20.08;;;;;;;14.90;100.00;96227.19;10550091;28;20182;-68
2023/05/23 06:42:30;;;;;;;27.83;21.95;;;;;;;14.87;100.00;96227.59;10539540;28;20277;-69
2023/05/23 06:47:44;;;;;;;22.42;18.67;;;;;;;15.10;100.00;96222.00;10519297;28;20260;-69
2023/05/23 06:52:45;;;;;;;20.42;18.33;;;;;;;15.21;100.00;96217.97;10551314;28;20612;-69
2023/05/23 06:57:49;;;;;;;20.52;16.02;;;;;;;15.78;100.00;96205.34;10546050;28;20247;-70
2023/05/23 07:03:02;;;;;;;21.05;17.45;;;;;;;15.95;100.00;96216.31;10568576;28;20226;-68
2023/05/23 07:08:02;;;;;;;24.42;16.73;;;;;;;16.38;100.00;96212.44;10560177;28;20217;-69
2023/05/23 07:13:03;;;;;;;22.05;17.55;;;;;;;16.25;100.00;96207.16;10559536;28;20731;-68
2023/05/23 07:18:03;;;;;;;19.52;17.33;;;;;;;16.04;100.00;96209.81;10559961;28;20235;-68
2023/05/23 07:23:05;;;;;;;18.45;16.48;;;;;;;16.00;100.00;96213.91;10559592;28;20209;-69
2023/05/23 07:28:05;;;;;;;18.30;16.27;;;;;;;16.00;100.00;96219.19;10559737;28;20223;-69
2023/05/23 07:33:06;;;;;;;16.30;14.57;;;;;;;16.30;100.00;96213.47;10556316;28;20292;-70
2023/05/23 07:38:08;;;;;;;17.52;15.73;;;;;;;15.73;100.00;96214.84;10537599;28;20548;-71
2023/05/23 07:43:08;;;;;;;17.35;14.07;;;;;;;16.20;100.00;96213.06;10534549;28;20210;-69
2023/05/23 07:48:09;;;;;;;17.52;15.75;;;;;;;16.01;100.00;96212.88;10534695;28;20238;-70
2023/05/23 07:53:10;;;;;;;19.95;14.52;;;;;;;16.59;100.00;96219.31;10497836;28;20268;-70
2023/05/23 07:58:10;;;;;;;18.45;14.90;;;;;;;16.33;100.00;96225.47;10526136;28;20301;-69
2023/05/23 08:03:11;;;;;;;15.35;13.75;;;;;;;16.03;100.00;96233.78;10537408;28;20230;-70
2023/05/23 08:08:22;;;;;;;15.45;13.38;;;;;;;15.70;100.00;96232.72;10513143;28;20221;-70
2023/05/23 08:13:22;;;;;;;15.00;13.40;;;;;;;16.30;100.00;96229.31;10513767;28;20210;-71
2023/05/23 08:18:43;;;;;;;17.38;14.07;;;;;;;16.10;100.00;96223.25;10537934;28;20533;-71
2023/05/23 08:23:43;;;;;;;18.02;14.10;;;;;;;16.51;100.00;96224.84;10532894;28;20210;-70
2023/05/23 08:28:45;;;;;;;16.63;13.35;;;;;;;17.37;100.00;96215.03;10528526;28;20355;-71
2023/05/23 08:33:45;;;;;;;15.95;12.73;;;;;;;17.38;100.00;96214.81;10514063;28;20587;-71
2023/05/23 08:38:46;;;;;;;14.95;12.23;;;;;;;17.96;100.00;96216.50;10523739;28;20224;-71
2023/05/23 08:43:57;;;;;;;14.77;12.48;;;;;;;17.39;100.00;96218.25;10526251;28;20288;-71
2023/05/23 08:49:01;;;;;;;15.43;13.50;;;;;;;16.83;100.00;96225.78;10531009;28;20206;-71
2023/05/23 08:54:04;;;;;;;13.60;12.07;;;;;;;17.60;100.00;96222.44;10525295;28;20248;-70
2023/05/23 08:59:08;;;;;;;13.68;12.02;;;;;;;17.76;100.00;96232.50;10507127;28;20179;-71
2023/05/23 09:04:10;;;;;;;16.27;12.98;;;;;;;17.28;100.00;96246.22;10523490;28;20234;-71
2023/05/23 09:09:18;;;;;;;17.80;14.43;;;;;;;17.22;100.00;96253.16;10536897;28;20227;-71
2023/05/23 09:14:19;;;;;;;17.63;14.55;;;;;;;17.17;100.00;96257.47;10530971;28;20306;-70
2023/05/23 09:19:20;;;;;;;19.15;14.10;;;;;;;17.20;100.00;96260.50;10521438;28;20186;-70
2023/05/23 09:24:37;;;;;;;16.30;13.52;;;;;;;17.06;100.00;96265.03;10521156;28;20210;-70
2023/05/23 09:29:40;;;;;;;18.13;16.13;;;;;;;16.98;100.00;96267.88;10479297;28;20211;-70
2023/05/23 09:34:41;;;;;;;20.70;16.73;;;;;;;17.12;100.00;96273.97;10499006;28;20716;-70
2023/05/23 09:39:45;;;;;;;19.05;17.02;;;;;;;16.66;100.00;96282.78;10505345;28;20178;-70
2023/05/23 09:44:45;;;;;;;19.70;17.65;;;;;;;16.79;100.00;96289.91;10477350;28;20587;-70
2023/05/23 09:49:46;;;;;;;20.67;17.70;;;;;;;17.05;100.00;96278.47;10519441;28;20221;-69
2023/05/23 09:54:47;;;;;;;20.48;15.30;;;;;;;17.15;100.00;96268.25;10519861;28;20333;-70
2023/05/23 09:59:53;;;;;;;22.00;17.55;;;;;;;16.60;100.00;96281.78;10537430;28;20771;-70
2023/05/23 10:04:54;;;;;;;25.70;17.05;;;;;;;16.17;100.00;96303.31;10537158;28;20277;-70
2023/05/23 10:09:57;;;;;;;25.55;18.13;;;;;;;15.68;100.00;96306.06;10536580;28;20214;-69
2023/05/23 10:15:08;;;;;;;24.23;17.95;;;;;;;15.73;100.00;96307.25;10517803;28;20241;-69
2023/05/23 10:20:16;;;;;;;22.25;17.02;;;;;;;15.97;100.00;96306.78;10548170;28;20189;-70
2023/05/23 10:25:16;;;;;;;22.92;17.73;;;;;;;15.48;100.00;96307.78;10532117;28;20199;-69
2023/05/23 10:30:16;;;;;;;24.27;18.00;;;;;;;15.37;100.00;96325.00;10546804;28;20214;-69
2023/05/23 10:35:29;;;;;;;20.17;15.73;;;;;;;15.01;100.00;96336.59;10538034;28;20202;-69
2023/05/23 10:40:50;;;;;;;18.48;14.27;;;;;;;15.02;100.00;96342.69;10533506;28;20179;-68
2023/05/23 10:45:51;;;;;;;20.38;13.80;;;;;;;14.67;100.00;96350.56;10535338;28;20194;-68
2023/05/23 10:51:13;;;;;;;21.58;15.98;;;;;;;14.59;100.00;96344.41;10552798;28;20308;-68
2023/05/23 10:56:22;;;;;;;24.35;17.02;;;;;;;14.34;100.00;96353.72;10556029;28;20226;-68
2023/05/23 11:01:23;;;;;;;22.23;17.40;;;;;;;14.23;100.00;96366.38;10537117;28;21137;-67
2023/05/23 11:06:37;;;;;;;25.50;19.90;;;;;;;13.71;100.00;96368.25;10494204;28;20206;-67
2023/05/23 11:11:50;;;;;;;24.98;16.50;;;;;;;13.80;100.00;96368.97;10530199;28;20271;-67
2023/05/23 11:16:52;;;;;;;22.27;16.50;;;;;;;14.36;100.00;96362.25;10532644;28;20256;-67
2023/05/23 11:22:00;;;;;;;21.60;16.33;;;;;;;14.90;100.00;96343.25;10533812;28;20251;-68
2023/05/23 11:27:02;;;;;;;20.08;15.50;;;;;;;15.17;100.00;96330.19;10533735;28;20268;-67
2023/05/23 11:32:11;;;;;;;18.92;14.60;;;;;;;15.26;100.00;96330.84;10533803;28;20206;-67
2023/05/23 11:37:11;;;;;;;19.52;15.23;;;;;;;15.01;100.00;96347.16;10534462;28;20178;-67
2023/05/23 11:42:12;;;;;;;19.60;15.75;;;;;;;14.39;100.00;96335.50;10533514;28;20202;-67
2023/05/23 11:47:12;;;;;;;18.35;14.98;;;;;;;14.62;100.00;96332.69;10533325;28;20214;-67
2023/05/23 11:52:13;;;;;;;17.30;13.98;;;;;;;14.70;100.00;96345.75;10532497;28;20306;-67
2023/05/23 11:57:13;;;;;;;16.27;14.52;;;;;;;14.66;100.00;96341.03;10533156;28;20189;-69
2023/05/23 12:02:14;;;;;;;18.45;14.75;;;;;;;14.58;100.00;96345.41;10543618;28;20791;-67
2023/05/23 12:07:18;;;;;;;18.25;14.32;;;;;;;15.01;100.00;96347.16;10551579;28;20735;-67
2023/05/23 12:12:19;;;;;;;17.90;13.63;;;;;;;15.30;100.00;96337.38;10547832;28;20301;-67
2023/05/23 12:17:20;;;;;;;17.02;13.48;;;;;;;15.28;100.00;96337.59;10531404;28;20298;-67
2023/05/23 12:22:23;;;;;;;14.90;12.40;;;;;;;15.58;100.00;96336.50;10532681;28;20208;-66
2023/05/23 12:27:30;;;;;;;14.98;12.45;;;;;;;15.89;100.00;96338.63;10571917;22;20245;-66
2023/05/23 12:32:31;;;;;;;15.45;12.25;;;;;;;15.65;100.00;96337.31;10541322;28;20209;-66
2023/05/23 12:37:32;;;;;;;16.98;11.80;;;;;;;15.77;100.00;96332.28;10517045;28;20226;-65
2023/05/23 12:42:43;;;;;;;16.92;10.70;;;;;;;16.01;100.00;96326.47;10539307;28;20198;-65
2023/05/23 12:47:43;;;;;;;12.73;9.75;;;;;;;16.03;100.00;96327.09;10539014;28;20305;-66
2023/05/23 12:52:44;;;;;;;16.17;10.02;;;;;;;15.70;100.00;96326.97;10498497;28;20199;-64
2023/05/23 12:57:44;;;;;;;10.48;9.38;;;;;;;15.61;100.00;96323.69;10538723;28;20310;-66
2023/05/23 13:02:45;;;;;;;11.10;8.80;;;;;;;14.67;100.00;96337.38;10539978;28;20198;-65
2023/05/23 13:07:45;;;;;;;9.65;8.65;;;;;;;14.64;100.00;96341.22;10540003;28;20313;-66
2023/05/23 13:12:45;;;;;;;11.43;8.63;;;;;;;15.12;100.00;96341.34;10539503;28;20190;-67
2023/05/23 13:17:46;;;;;;;12.70;9.30;;;;;;;15.62;100.00;96332.41;10539110;28;20285;-66
2023/05/23 13:22:46;;;;;;;10.50;7.95;;;;;;;16.33;100.00;96332.00;10538941;28;20251;-67
2023/05/23 13:27:47;;;;;;;10.27;8.48;;;;;;;15.86;100.00;96328.47;10537054;28;20222;-65
2023/05/23 13:32:47;;;;;;;9.07;7.53;;;;;;;16.57;97.41;96320.03;10498748;28;20636;-66
2023/05/23 13:37:47;;;;;;;8.68;6.50;;;;;;;16.70;96.35;96324.47;10495593;28;20306;-67
2023/05/23 13:42:52;;;;;;;8.77;7.07;;;;;;;16.53;98.07;96324.09;10496737;28;20211;-67
2023/05/23 13:47:52;;;;;;;8.07;7.00;;;;;;;15.91;100.00;96341.91;10494900;28;20226;-66
2023/05/23 13:52:53;;;;;;;8.98;7.60;;;;;;;15.34;100.00;96365.84;10521077;28;20297;-64
2023/05/23 13:57:56;;;;;;;9.90;7.13;;;;;;;15.32;100.00;96378.38;10517726;28;20210;-65
2023/05/23 14:03:02;;;;;;;9.95;7.55;;;;;;;14.66;100.00;96394.56;10518871;28;20195;-64
2023/05/23 14:08:14;;;;;;;8.05;7.25;;;;;;;14.42;100.00;96393.91;10517468;28;20222;-65
2023/05/23 14:13:15;;;;;;;8.40;7.47;;;;;;;14.32;100.00;96395.22;10537521;28;20194;-65
2023/05/23 14:18:15;;;;;;;12.93;8.65;;;;;;;14.08;100.00;96410.41;10536634;28;20210;-65
2023/05/23 14:23:15;;;;;;;11.25;8.82;;;;;;;14.17;100.00;96405.84;10526969;28;20209;-64
2023/05/23 14:28:16;;;;;;;10.13;8.93;;;;;;;14.36;100.00;96407.03;10494150;28;20377;-65
2023/05/23 14:33:16;;;;;;;8.68;7.78;;;;;;;14.37;100.00;96403.41;10493149;28;20195;-65
2023/05/23 14:38:17;;;;;;;8.35;7.55;;;;;;;14.20;100.00;96400.19;10533977;28;20260;-65
2023/05/23 14:43:17;;;;;;;7.70;5.65;;;;;;;13.94;100.00;96409.44;10535803;28;20564;-64
2023/05/23 14:48:18;;;;;;;5.57;5.05;;;;;;;13.80;100.00;96419.00;10535793;28;20223;-65
2023/05/23 14:53:21;;;;;;;5.88;4.93;;;;;;;13.83;100.00;96426.53;10530369;28;20277;-64
2023/05/23 14:58:21;;;;;;;6.00;3.70;;;;;;;13.86;100.00;96422.72;10535745;28;20241;-64
2023/05/23 15:03:22;;;;;;;3.80;3.47;;;;;;;13.75;100.00;96426.63;10521785;28;20629;-65
2023/05/23 15:08:22;;;;;;;3.38;2.00;;;;;;;13.88;100.00;96433.88;10493266;28;20701;-66
2023/05/23 15:13:23;;;;;;;2.95;1.77;;;;;;;13.76;100.00;96430.88;10492534;28;20191;-67
2023/05/23 15:18:23;;;;;;;3.88;3.55;;;;;;;13.74;100.00;96443.44;10531262;28;20281;-66
2023/05/23 15:23:23;;;;;;;4.88;4.40;;;;;;;13.68;100.00;96436.25;10535109;28;20239;-66
2023/05/23 15:28:24;;;;;;;5.70;5.20;;;;;;;13.38;100.00;96436.25;10534070;28;20235;-65
2023/05/23 15:33:24;;;;;;;6.82;5.65;;;;;;;13.46;100.00;96435.34;10532435;28;20202;-66
2023/05/23 15:38:24;;;;;;;9.13;7.03;;;;;;;13.47;100.00;96439.63;10505024;28;20351;-65
2023/05/23 15:43:25;;;;;;;8.32;6.60;;;;;;;13.41;100.00;96443.78;10533505;28;20191;-65
2023/05/23 15:48:25;;;;;;;12.57;10.75;;;;;;;13.16;100.00;96449.28;10533199;28;20222;-66
2023/05/23 15:53:26;;;;;;;15.15;12.63;;;;;;;12.84;100.00;96460.91;10496345;28;20195;-66
2023/05/23 15:58:30;;;;;;;15.82;13.00;;;;;;;12.39;100.00;96465.16;10491385;28;20207;-66
2023/05/23 16:03:30;;;;;;;20.10;13.13;;;;;;;12.45;100.00;96485.47;10504229;28;20183;-66
2023/05/23 16:08:31;;;;;;;21.08;13.55;;;;;;;12.30;100.00;96496.72;10489608;28;20241;-66
2023/05/23 16:13:31;;;;;;;17.77;13.73;;;;;;;12.04;100.00;96494.41;10527894;28;20202;-66
2023/05/23 16:18:32;;;;;;;16.45;13.60;;;;;;;12.00;100.00;96511.47;10532513;28;20252;-65
2023/05/23 16:23:32;;;;;;;10.05;9.05;;;;;;;11.95;100.00;96500.69;10532136;28;20244;-65
2023/05/23 16:28:32;;;;;;;10.02;8.13;;;;;;;11.86;100.00;96496.41;10532067;28;20333;-66
2023/05/23 16:33:33;;;;;;;10.40;7.25;;;;;;;11.80;100.00;96503.16;10532650;28;20190;-66
2023/05/23 16:38:33;;;;;;;8.35;7.00;;;;;;;11.72;100.00;96492.69;10531406;28;20283;-66
2023/05/23 16:43:33;;;;;;;9.38;8.43;;;;;;;11.77;100.00;96501.69;10530090;28;20277;-66
2023/05/23 16:48:34;;;;;;;9.95;7.03;;;;;;;11.66;100.00;96501.25;10532482;28;20299;-66
2023/05/23 16:53:34;;;;;;;8.30;5.45;;;;;;;11.48;100.00;96490.94;10498506;28;20287;-65
2023/05/23 16:58:37;;;;;;;5.63;5.03;;;;;;;11.55;100.00;96490.09;10490981;28;20207;-66
2023/05/23 17:03:38;;;;;;;4.88;4.47;;;;;;;11.63;100.00;96497.13;10505775;28;20187;-66
2023/05/23 17:08:38;;;;;;;6.68;4.70;;;;;;;11.45;100.00;96491.28;10508776;28;20250;-66
2023/05/23 17:13:38;;;;;;;5.38;4.15;;;;;;;11.21;100.00;96508.72;10509447;28;20195;-66
2023/05/23 17:18:39;;;;;;;3.38;3.10;;;;;;;11.29;100.00;96511.31;10498488;28;20565;-67
2023/05/23 17:23:39;;;;;;;4.18;3.00;;;;;;;11.10;100.00;96522.94;10497946;28;20628;-66
2023/05/23 17:28:40;;;;;;;5.20;4.70;;;;;;;11.15;100.00;96527.69;10497748;28;20590;-65
2023/05/23 17:33:40;;;;;;;5.05;4.50;;;;;;;11.12;100.00;96549.84;10497728;28;20273;-67
2023/05/23 17:38:40;;;;;;;5.05;4.03;;;;;;;11.03;100.00;96556.06;10497138;28;20207;-66
2023/05/23 17:43:41;;;;;;;6.45;2.88;;;;;;;10.81;100.00;96562.72;10497531;28;20229;-66
2023/05/23 17:48:42;;;;;;;5.73;3.03;;;;;;;10.73;100.00;96562.72;10497275;28;20230;-66
2023/05/23 17:53:42;;;;;;;4.68;4.13;;;;;;;10.50;100.00;96565.94;10523041;28;20274;-66
2023/05/23 17:58:42;;;;;;;5.53;4.40;;;;;;;10.49;100.00;96572.16;10501442;28;20207;-66
2023/05/23 18:03:43;;;;;;;5.27;4.20;;;;;;;10.50;100.00;96579.03;10497993;28;20195;-65
2023/05/23 18:08:43;;;;;;;3.80;3.27;;;;;;;10.41;100.00;96580.00;10498011;28;20215;-66
2023/05/23 18:13:43;;;;;;;6.60;3.40;;;;;;;10.34;100.00;96585.88;10497364;28;20249;-66
2023/05/23 18:18:44;;;;;;;3.30;2.80;;;;;;;10.31;100.00;96594.00;10497568;28;20207;-67
2023/05/23 18:23:44;;;;;;;2.23;2.03;;;;;;;10.07;100.00;96601.75;10496735;28;20222;-65
2023/05/23 18:28:44;;;;;;;3.97;2.77;;;;;;;9.90;100.00;96606.91;10575479;22;20246;-67
2023/05/23 18:33:45;;;;;;;4.00;3.50;;;;;;;9.88;100.00;96616.69;10580046;28;20214;-67
2023/05/23 18:38:46;;;;;;;4.40;3.00;;;;;;;9.93;100.00;96621.47;10612038;27;20208;-67
2023/05/23 18:43:48;;;;;;;3.90;3.50;;;;;;;9.79;100.00;96625.47;10622937;27;20200;-67
2023/05/23 18:48:48;;;;;;;3.60;3.30;;;;;;;9.91;100.00;96649.59;10620302;27;20227;-67
2023/05/23 18:53:48;;;;;;;5.63;4.17;;;;;;;9.71;100.00;96656.78;10580046;28;20285;-68
2023/05/23 18:58:50;;;;;;;7.50;5.50;;;;;;;9.62;100.00;96669.00;10579746;28;20302;-68
2023/05/23 19:03:50;;;;;;;8.00;6.80;;;;;;;9.58;100.00;96675.50;10579649;28;20346;-67
2023/05/23 19:08:51;;;;;;;9.93;6.20;;;;;;;9.48;100.00;96680.00;10579128;28;20298;-67
2023/05/23 19:13:51;;;;;;;8.97;6.23;;;;;;;9.50;100.00;96693.75;10579138;28;20674;-67
2023/05/23 19:18:51;;;;;;;10.40;7.17;;;;;;;9.47;100.00;96710.56;10579006;28;20202;-67
2023/05/23 19:23:52;;;;;;;10.67;7.73;;;;;;;9.50;100.00;96731.19;10578826;28;20193;-67
2023/05/23 19:28:52;;;;;;;12.83;8.97;;;;;;;9.47;100.00;96734.09;10578400;28;20383;-67
2023/05/23 19:33:53;;;;;;;13.20;7.83;;;;;;;9.50;100.00;96749.47;10578278;28;20189;-67
2023/05/23 19:38:54;;;;;;;10.57;7.67;;;;;;;9.41;100.00;96759.03;10577821;28;20209;-67
2023/05/23 19:43:55;;;;;;;19.77;11.30;;;;;;;9.33;100.00;96766.81;10580105;28;20194;-68
2023/05/23 19:48:58;;;;;;;13.30;10.47;;;;;;;9.27;100.00;96775.22;10579679;28;20252;-67
2023/05/23 19:53:58;;;;;;;17.90;11.17;;;;;;;9.21;100.00;96784.47;10583972;28;20688;-68
2023/05/23 19:58:59;;;;;;;19.00;12.20;;;;;;;9.12;100.00;96787.97;10579586;28;20205;-67
2023/05/23 20:03:59;;;;;;;25.17;11.80;;;;;;;9.13;100.00;96797.47;10577757;28;20220;-67
2023/05/23 20:09:00;;;;;;;33.73;12.77;;;;;;;9.05;100.00;96802.56;10577248;28;20305;-68
2023/05/23 20:14:00;;;;;;;30.87;12.27;;;;;;;8.96;100.00;96800.81;10577376;28;20277;-68
2023/05/23 20:19:00;;;;;;;28.37;12.57;;;;;;;8.90;100.00;96802.25;10577073;28;20205;-67
2023/05/23 20:24:01;;;;;;;23.10;11.80;;;;;;;8.74;100.00;96813.28;10577095;28;20187;-68
2023/05/23 20:29:01;;;;;;;26.90;11.30;;;;;;;8.69;100.00;96829.38;10576750;28;20259;-68
2023/05/23 20:34:02;;;;;;;26.33;11.53;;;;;;;8.66;100.00;96827.03;10577042;28;20190;-68
2023/05/23 20:39:02;;;;;;;26.87;9.70;;;;;;;8.63;100.00;96824.72;10577379;28;20216;-68
2023/05/23 20:44:02;;;;;;;24.00;9.47;;;;;;;8.66;100.00;96839.28;10577131;28;20290;-68
2023/05/23 20:49:03;;;;;;;15.77;8.60;;;;;;;8.54;100.00;96839.44;10583410;28;20225;-68
2023/05/23 20:54:04;;;;;;;23.60;10.30;;;;;;;8.46;100.00;96833.28;10585415;28;20224;-68
2023/05/23 20:59:04;;;;;;;24.93;10.20;;;;;;;8.45;100.00;96850.72;10585347;28;20216;-68
2023/05/23 21:04:04;;;;;;;21.30;10.10;;;;;;;8.52;100.00;96848.38;10585082;28;20190;-68
2023/05/23 21:09:05;;;;;;;21.07;11.07;;;;;;;8.47;100.00;96843.59;10584575;28;20247;-67
2023/05/23 21:14:05;;;;;;;25.10;10.70;;;;;;;8.52;100.00;96846.59;10584816;28;20293;-68
2023/05/23 21:19:06;;;;;;;22.13;10.33;;;;;;;8.59;100.00;96851.25;10584324;28;20263;-68
2023/05/23 21:24:06;;;;;;;27.67;10.20;;;;;;;8.39;100.00;96835.59;10584334;28;20648;-67
2023/05/23 21:29:06;;;;;;;21.53;10.43;;;;;;;8.51;100.00;96838.91;10583671;28;21059;-67
2023/05/23 21:34:07;;;;;;;22.73;10.40;;;;;;;8.45;100.00;96847.28;10584031;28;20685;-67
2023/05/23 21:39:07;;;;;;;24.07;10.70;;;;;;;8.18;100.00;96847.00;10583694;28;20727;-67
2023/05/23 21:44:07;;;;;;;29.73;10.67;;;;;;;8.13;100.00;96841.41;10583475;28;20696;-67
2023/05/23 21:49:08;;;;;;;30.13;9.73;;;;;;;8.30;100.00;96839.03;10583301;28;20221;-67
2023/05/23 21:54:08;;;;;;;28.07;10.70;;;;;;;8.27;100.00;96824.50;10562761;28;20189;-68
2023/05/23 21:59:08;;;;;;;31.40;11.00;;;;;;;8.28;100.00;96827.91;10582307;28;20718;-68
2023/05/23 22:04:09;;;;;;;21.57;10.33;;;;;;;8.19;100.00;96833.03;10582633;28;20658;-68
2023/05/23 22:09:10;;;;;;;22.20;10.67;;;;;;;8.31;100.00;96820.63;10582653;28;20585;-67
2023/05/23 22:14:10;;;;;;;23.47;11.43;;;;;;;8.31;100.00;96820.63;10582282;28;20182;-67
2023/05/23 22:19:11;;;;;;;20.90;10.60;;;;;;;8.22;100.00;96805.81;10582201;28;20198;-67
2023/05/23 22:24:11;;;;;;;25.83;10.83;;;;;;;8.23;100.00;96794.41;10581976;28;20254;-67
2023/05/23 22:29:12;;;;;;;24.97;11.20;;;;;;;8.19;100.00;96790.41;10581639;28;20321;-67
2023/05/23 22:34:12;;;;;;;28.93;12.40;;;;;;;8.15;100.00;96791.69;10581429;28;20193;-67
2023/05/23 22:39:13;;;;;;;30.97;11.63;;;;;;;8.02;100.00;96795.41;10581212;28;20208;-67
2023/05/23 22:44:13;;;;;;;23.90;10.40;;;;;;;7.97;100.00;96805.41;10581189;28;20194;-67
2023/05/23 22:49:14;;;;;;;24.03;9.90;;;;;;;7.91;100.00;96805.16;10580616;28;20232;-67
2023/05/23 22:54:14;;;;;;;29.60;10.27;;;;;;;7.80;100.00;96813.94;10580826;28;20205;-67